Ban Ang Hin, Thailand

7:22 AM ICT on December 03, 2016 (GMT +0700)
Hua Hin Aero | | Change Station

Elev 20 ft 12.58 °N, 99.95 °E | Updated 22 minutes ago

Clear
Clear
77 °F
Feels Like 77 °F
N
8
Wind Variable Wind from North

Today
High -- | Low -- °F
--% Chance of Precip.
Yesterday
High -- | Low -- °F
Precip. -- in
Pressure 29.92 in
Visibility -9999.0 miles
Clouds
Dew Point 68 °F
Humidity 74%
Rainfall 0.00 in
Snow Depth Not available.
6:27 AM 5:52 PM
Waxing Crescent, 11% visible
METAR VTPH 030000Z 35007KT 310V040 CAVOK 25/20 Q1013
Pressure 29.92 in
Visibility -9999.0 miles
Clouds
Dew Point 68 °F
Humidity 74%
Rainfall 0.00 in
Snow Depth Not available.
6:27 AM 5:52 PM
Waxing Crescent, 11% visible
METAR VTPH 030000Z 35007KT 310V040 CAVOK 25/20 Q1013

10-Day Weather Forecast

No radar image for this location.
×

Almanac

Astronomy

Dec. 03, 2016 Rise Set
Actual Time
Civil Twilight
Nautical Twilight
Astronomical Twilight
Moon
Length of Visible Light
Length of Day
Tomorrow will be .
, % of the Moon is Illuminated

Today's Extremes

Country Highs Country Lows

Community

WunderPhotos

Upload Photos

1,955,380 photos uploaded!

WunderBlog® & News

Nearby

Air Quality

  Air Quality AQ Index Pollutant
Not available.

Snow Depth

Station Depth Elevation

Earthquake Activity

City Distance Mag. Time & Date
Minimum magnitude displayed is 2.5.

Coastal Water Temperatures

Place Temperature

Stations

Nearby Weather Stations

Station Location Temp. Windchill Dew Point Humidity Wind Precip. Elev Updated Type